sensor_id;sensor_type;location;lat;lon;timestamp;pressure;altitude;pressure_sealevel;temperature
80246;BMP280;69558;39.208;-77.226;2023-12-28T00:01:30;99407.81;;;15.35
80246;BMP280;69558;39.208;-77.226;2023-12-28T00:03:56;99411.81;;;15.31
80246;BMP280;69558;39.208;-77.226;2023-12-28T00:06:22;99399.13;;;15.35
80246;BMP280;69558;39.208;-77.226;2023-12-28T00:08:47;99388.53;;;15.36
80246;BMP280;69558;39.208;-77.226;2023-12-28T00:11:14;99385.91;;;15.36
80246;BMP280;69558;39.208;-77.226;2023-12-28T00:13:40;99387.72;;;15.36
80246;BMP280;69558;39.208;-77.226;2023-12-28T00:16:06;99400.59;;;15.37
80246;BMP280;69558;39.208;-77.226;2023-12-28T00:18:31;99395.38;;;15.37
80246;BMP280;69558;39.208;-77.226;2023-12-28T00:20:58;99391.16;;;15.36
80246;BMP280;69558;39.208;-77.226;2023-12-28T00:23:24;99395.56;;;15.36
80246;BMP280;69558;39.208;-77.226;2023-12-28T00:25:50;99385.91;;;15.36
80246;BMP280;69558;39.208;-77.226;2023-12-28T00:28:16;99366.97;;;15.34
80246;BMP280;69558;39.208;-77.226;2023-12-28T00:30:42;99355.38;;;15.37
80246;BMP280;69558;39.208;-77.226;2023-12-28T00:33:08;99347.72;;;15.35
80246;BMP280;69558;39.208;-77.226;2023-12-28T00:35:34;99358.00;;;15.37
80246;BMP280;69558;39.208;-77.226;2023-12-28T00:38:00;99362.56;;;15.35
80246;BMP280;69558;39.208;-77.226;2023-12-28T00:40:25;99354.56;;;15.36
80246;BMP280;69558;39.208;-77.226;2023-12-28T00:42:51;99339.25;;;15.33
80246;BMP280;69558;39.208;-77.226;2023-12-28T00:45:17;99363.41;;;15.35
80246;BMP280;69558;39.208;-77.226;2023-12-28T00:47:43;99363.41;;;15.35
80246;BMP280;69558;39.208;-77.226;2023-12-28T00:50:09;99316.28;;;15.28
80246;BMP280;69558;39.208;-77.226;2023-12-28T00:52:40;99320.94;;;15.33
80246;BMP280;69558;39.208;-77.226;2023-12-28T00:55:07;99328.44;;;15.36
80246;BMP280;69558;39.208;-77.226;2023-12-28T00:57:34;99324.22;;;15.35
80246;BMP280;69558;39.208;-77.226;2023-12-28T01:00:00;99342.50;;;15.35
80246;BMP280;69558;39.208;-77.226;2023-12-28T01:02:27;99351.97;;;15.36
80246;BMP280;69558;39.208;-77.226;2023-12-28T01:04:54;99356.38;;;15.36
80246;BMP280;69558;39.208;-77.226;2023-12-28T01:07:20;99339.25;;;15.33
80246;BMP280;69558;39.208;-77.226;2023-12-28T01:09:46;99341.50;;;15.36
80246;BMP280;69558;39.208;-77.226;2023-12-28T01:12:11;99339.69;;;15.37
80246;BMP280;69558;39.208;-77.226;2023-12-28T01:14:37;99338.91;;;15.36
80246;BMP280;69558;39.208;-77.226;2023-12-28T01:17:03;99331.41;;;15.33
80246;BMP280;69558;39.208;-77.226;2023-12-28T01:19:29;99330.59;;;15.33
80246;BMP280;69558;39.208;-77.226;2023-12-28T01:21:55;99327.78;;;15.34
80246;BMP280;69558;39.208;-77.226;2023-12-28T01:24:21;99325.19;;;15.34
80246;BMP280;69558;39.208;-77.226;2023-12-28T01:26:47;99320.16;;;15.33
80246;BMP280;69558;39.208;-77.226;2023-12-28T01:29:13;99324.22;;;15.35
80246;BMP280;69558;39.208;-77.226;2023-12-28T01:31:38;99327.63;;;15.36
80246;BMP280;69558;39.208;-77.226;2023-12-28T01:34:05;99325.19;;;15.34
80246;BMP280;69558;39.208;-77.226;2023-12-28T01:36:31;99317.34;;;15.34
80246;BMP280;69558;39.208;-77.226;2023-12-28T01:38:57;99314.91;;;15.33
80246;BMP280;69558;39.208;-77.226;2023-12-28T01:41:22;99319.94;;;15.34
80246;BMP280;69558;39.208;-77.226;2023-12-28T01:43:48;99321.75;;;15.34
80246;BMP280;69558;39.208;-77.226;2023-12-28T01:46:18;99316.53;;;15.34
80246;BMP280;69558;39.208;-77.226;2023-12-28T01:48:48;99324.22;;;15.35
80246;BMP280;69558;39.208;-77.226;2023-12-28T01:51:15;99329.44;;;15.35
80246;BMP280;69558;39.208;-77.226;2023-12-28T01:53:45;99322.41;;;15.36
80246;BMP280;69558;39.208;-77.226;2023-12-28T01:56:12;99333.81;;;15.35
80246;BMP280;69558;39.208;-77.226;2023-12-28T01:58:40;99332.06;;;15.35
80246;BMP280;69558;39.208;-77.226;2023-12-28T02:01:07;99333.66;;;15.36
80246;BMP280;69558;39.208;-77.226;2023-12-28T02:03:33;99322.75;;;15.33
80246;BMP280;69558;39.208;-77.226;2023-12-28T02:06:00;99329.59;;;15.34
80246;BMP280;69558;39.208;-77.226;2023-12-28T02:08:27;99328.78;;;15.33
80246;BMP280;69558;39.208;-77.226;2023-12-28T02:10:52;99314.13;;;15.32
80246;BMP280;69558;39.208;-77.226;2023-12-28T02:13:21;99314.72;;;15.34
80246;BMP280;69558;39.208;-77.226;2023-12-28T02:15:47;99305.50;;;15.32
80246;BMP280;69558;39.208;-77.226;2023-12-28T02:18:20;99309.69;;;15.33
80246;BMP280;69558;39.208;-77.226;2023-12-28T02:20:48;99312.31;;;15.33
80246;BMP280;69558;39.208;-77.226;2023-12-28T02:23:15;99308.09;;;15.32
80246;BMP280;69558;39.208;-77.226;2023-12-28T02:25:41;99306.09;;;15.34
80246;BMP280;69558;39.208;-77.226;2023-12-28T02:28:08;99295.84;;;15.32
80246;BMP280;69558;39.208;-77.226;2023-12-28T02:30:34;99294.63;;;15.35
80246;BMP280;69558;39.208;-77.226;2023-12-28T02:33:08;99297.25;;;15.35
80246;BMP280;69558;39.208;-77.226;2023-12-28T02:35:42;99291.22;;;15.34
80246;BMP280;69558;39.208;-77.226;2023-12-28T02:38:13;99289.41;;;15.35
80246;BMP280;69558;39.208;-77.226;2023-12-28T02:40:42;99285.41;;;15.32
80246;BMP280;69558;39.208;-77.226;2023-12-28T02:43:11;99287.78;;;15.34
80246;BMP280;69558;39.208;-77.226;2023-12-28T02:45:38;99290.41;;;15.34
80246;BMP280;69558;39.208;-77.226;2023-12-28T02:48:05;99299.06;;;15.34
80246;BMP280;69558;39.208;-77.226;2023-12-28T02:50:32;99296.44;;;15.34
80246;BMP280;69558;39.208;-77.226;2023-12-28T02:52:59;99279.97;;;15.34
80246;BMP280;69558;39.208;-77.226;2023-12-28T02:55:25;99288.78;;;15.33
80246;BMP280;69558;39.208;-77.226;2023-12-28T02:57:53;99274.72;;;15.34
80246;BMP280;69558;39.208;-77.226;2023-12-28T03:00:24;99270.50;;;15.33
80246;BMP280;69558;39.208;-77.226;2023-12-28T03:02:50;99267.69;;;15.34
80246;BMP280;69558;39.208;-77.226;2023-12-28T03:05:17;99262.31;;;15.36
80246;BMP280;69558;39.208;-77.226;2023-12-28T03:07:43;99253.84;;;15.34
80246;BMP280;69558;39.208;-77.226;2023-12-28T03:10:09;99253.84;;;15.34
80246;BMP280;69558;39.208;-77.226;2023-12-28T03:12:37;99248.59;;;15.34
80246;BMP280;69558;39.208;-77.226;2023-12-28T03:15:04;99247.59;;;15.35
80246;BMP280;69558;39.208;-77.226;2023-12-28T03:17:30;99244.19;;;15.34
80246;BMP280;69558;39.208;-77.226;2023-12-28T03:19:57;99248.03;;;15.32
80246;BMP280;69558;39.208;-77.226;2023-12-28T03:22:24;99260.88;;;15.33
80246;BMP280;69558;39.208;-77.226;2023-12-28T03:24:50;99269.72;;;15.32
80246;BMP280;69558;39.208;-77.226;2023-12-28T03:27:15;99272.13;;;15.34
80246;BMP280;69558;39.208;-77.226;2023-12-28T03:29:42;99269.72;;;15.32
80246;BMP280;69558;39.208;-77.226;2023-12-28T03:32:08;99277.34;;;15.34
80246;BMP280;69558;39.208;-77.226;2023-12-28T03:34:34;99281.56;;;15.35
80246;BMP280;69558;39.208;-77.226;2023-12-28T03:37:00;99273.13;;;15.33
80246;BMP280;69558;39.208;-77.226;2023-12-28T03:39:27;99281.56;;;15.35
80246;BMP280;69558;39.208;-77.226;2023-12-28T03:41:53;99281.75;;;15.33
80246;BMP280;69558;39.208;-77.226;2023-12-28T03:44:20;99285.03;;;15.35
80246;BMP280;69558;39.208;-77.226;2023-12-28T03:46:49;99286.63;;;15.36
80246;BMP280;69558;39.208;-77.226;2023-12-28T03:49:18;99279.81;;;15.35
80246;BMP280;69558;39.208;-77.226;2023-12-28T03:51:44;99273.94;;;15.33
80246;BMP280;69558;39.208;-77.226;2023-12-28T03:54:10;99275.53;;;15.34
80246;BMP280;69558;39.208;-77.226;2023-12-28T03:56:35;99261.91;;;15.32
80246;BMP280;69558;39.208;-77.226;2023-12-28T03:59:05;99269.16;;;15.37
80246;BMP280;69558;39.208;-77.226;2023-12-28T04:01:31;99269.16;;;15.37
80246;BMP280;69558;39.208;-77.226;2023-12-28T04:03:57;99262.94;;;15.38
80246;BMP280;69558;39.208;-77.226;2023-12-28T04:06:23;99262.13;;;15.37
80246;BMP280;69558;39.208;-77.226;2023-12-28T04:08:49;99270.97;;;15.36
80246;BMP280;69558;39.208;-77.226;2023-12-28T04:11:15;99261.31;;;15.37
80246;BMP280;69558;39.208;-77.226;2023-12-28T04:13:41;99266.72;;;15.35
80246;BMP280;69558;39.208;-77.226;2023-12-28T04:16:07;99263.13;;;15.36
80246;BMP280;69558;39.208;-77.226;2023-12-28T04:18:34;99263.13;;;15.36
80246;BMP280;69558;39.208;-77.226;2023-12-28T04:21:00;99254.28;;;15.37
80246;BMP280;69558;39.208;-77.226;2023-12-28T04:23:26;99251.06;;;15.35
80246;BMP280;69558;39.208;-77.226;2023-12-28T04:25:52;99257.91;;;15.36
80246;BMP280;69558;39.208;-77.226;2023-12-28T04:28:18;99254.63;;;15.34
80246;BMP280;69558;39.208;-77.226;2023-12-28T04:30:44;99254.47;;;15.36
80246;BMP280;69558;39.208;-77.226;2023-12-28T04:33:09;99255.28;;;15.36
80246;BMP280;69558;39.208;-77.226;2023-12-28T04:35:35;99243.22;;;15.35
80246;BMP280;69558;39.208;-77.226;2023-12-28T04:38:01;99249.25;;;15.36
80246;BMP280;69558;39.208;-77.226;2023-12-28T04:40:27;99230.31;;;15.34
80246;BMP280;69558;39.208;-77.226;2023-12-28T04:42:54;99230.16;;;15.35
80246;BMP280;69558;39.208;-77.226;2023-12-28T04:45:20;99227.34;;;15.37
80246;BMP280;69558;39.208;-77.226;2023-12-28T04:47:47;99233.59;;;15.36
80246;BMP280;69558;39.208;-77.226;2023-12-28T04:50:13;99240.41;;;15.37
80246;BMP280;69558;39.208;-77.226;2023-12-28T04:52:39;99244.84;;;15.36
80246;BMP280;69558;39.208;-77.226;2023-12-28T04:55:06;99229.31;;;15.35
80246;BMP280;69558;39.208;-77.226;2023-12-28T04:57:32;99229.97;;;15.37
80246;BMP280;69558;39.208;-77.226;2023-12-28T04:59:59;99222.13;;;15.37
80246;BMP280;69558;39.208;-77.226;2023-12-28T05:02:24;99220.53;;;15.36
80246;BMP280;69558;39.208;-77.226;2023-12-28T05:04:50;99212.84;;;15.34
80246;BMP280;69558;39.208;-77.226;2023-12-28T05:07:16;99208.41;;;15.35
80246;BMP280;69558;39.208;-77.226;2023-12-28T05:09:42;99214.47;;;15.35
80246;BMP280;69558;39.208;-77.226;2023-12-28T05:12:08;99205.66;;;15.36
80246;BMP280;69558;39.208;-77.226;2023-12-28T05:14:33;99208.41;;;15.35
80246;BMP280;69558;39.208;-77.226;2023-12-28T05:16:59;99206.66;;;15.35
80246;BMP280;69558;39.208;-77.226;2023-12-28T05:19:25;99198.81;;;15.35
80246;BMP280;69558;39.208;-77.226;2023-12-28T05:21:51;99200.41;;;15.36
80246;BMP280;69558;39.208;-77.226;2023-12-28T05:24:16;99202.22;;;15.36
80246;BMP280;69558;39.208;-77.226;2023-12-28T05:26:42;99189.31;;;15.34
80246;BMP280;69558;39.208;-77.226;2023-12-28T05:29:08;99192.75;;;15.35
80246;BMP280;69558;39.208;-77.226;2023-12-28T05:31:34;99177.84;;;15.28
80246;BMP280;69558;39.208;-77.226;2023-12-28T05:34:00;99191.78;;;15.36
80246;BMP280;69558;39.208;-77.226;2023-12-28T05:36:25;99181.91;;;15.31
80246;BMP280;69558;39.208;-77.226;2023-12-28T05:38:51;99189.16;;;15.36
80246;BMP280;69558;39.208;-77.226;2023-12-28T05:41:17;99187.53;;;15.35
80246;BMP280;69558;39.208;-77.226;2023-12-28T05:43:43;99196.81;;;15.37
80246;BMP280;69558;39.208;-77.226;2023-12-28T05:46:10;99195.19;;;15.36
80246;BMP280;69558;39.208;-77.226;2023-12-28T05:48:35;99196.00;;;15.37
80246;BMP280;69558;39.208;-77.226;2023-12-28T05:51:02;99193.38;;;15.37
80246;BMP280;69558;39.208;-77.226;2023-12-28T05:53:29;99195.78;;;15.38
80246;BMP280;69558;39.208;-77.226;2023-12-28T05:55:55;99186.38;;;15.37
80246;BMP280;69558;39.208;-77.226;2023-12-28T05:58:21;99183.53;;;15.39
80246;BMP280;69558;39.208;-77.226;2023-12-28T06:00:47;99173.06;;;15.39
80246;BMP280;69558;39.208;-77.226;2023-12-28T06:03:14;99164.44;;;15.38
80246;BMP280;69558;39.208;-77.226;2023-12-28T06:05:40;99167.03;;;15.38
80246;BMP280;69558;39.208;-77.226;2023-12-28T06:08:06;99169.50;;;15.40
80246;BMP280;69558;39.208;-77.226;2023-12-28T06:10:32;99157.00;;;15.35
80246;BMP280;69558;39.208;-77.226;2023-12-28T06:12:58;99165.47;;;15.37
80246;BMP280;69558;39.208;-77.226;2023-12-28T06:15:24;99162.47;;;15.40
80246;BMP280;69558;39.208;-77.226;2023-12-28T06:17:50;99161.47;;;15.41
80246;BMP280;69558;39.208;-77.226;2023-12-28T06:20:17;99166.88;;;15.40
80246;BMP280;69558;39.208;-77.226;2023-12-28T06:22:42;99152.59;;;15.36
80246;BMP280;69558;39.208;-77.226;2023-12-28T06:25:11;99165.06;;;15.40
80246;BMP280;69558;39.208;-77.226;2023-12-28T06:27:37;99162.47;;;15.40
80246;BMP280;69558;39.208;-77.226;2023-12-28T06:30:03;99142.88;;;15.30
80246;BMP280;69558;39.208;-77.226;2023-12-28T06:32:30;99157.63;;;15.37
80246;BMP280;69558;39.208;-77.226;2023-12-28T06:34:56;99161.66;;;15.40
80246;BMP280;69558;39.208;-77.226;2023-12-28T06:37:21;99164.28;;;15.40
80246;BMP280;69558;39.208;-77.226;2023-12-28T06:39:47;99154.63;;;15.40
80246;BMP280;69558;39.208;-77.226;2023-12-28T06:42:14;99152.00;;;15.40
80246;BMP280;69558;39.208;-77.226;2023-12-28T06:44:40;99152.00;;;15.40
80246;BMP280;69558;39.208;-77.226;2023-12-28T06:47:06;99156.44;;;15.40
80246;BMP280;69558;39.208;-77.226;2023-12-28T06:49:32;99164.28;;;15.40
80246;BMP280;69558;39.208;-77.226;2023-12-28T06:51:58;99160.00;;;15.39
80246;BMP280;69558;39.208;-77.226;2023-12-28T06:54:24;99161.66;;;15.40
80246;BMP280;69558;39.208;-77.226;2023-12-28T06:56:50;99156.59;;;15.38
80246;BMP280;69558;39.208;-77.226;2023-12-28T06:59:17;99157.25;;;15.40
80246;BMP280;69558;39.208;-77.226;2023-12-28T07:01:43;99154.44;;;15.42
80246;BMP280;69558;39.208;-77.226;2023-12-28T07:04:10;99153.81;;;15.40
80246;BMP280;69558;39.208;-77.226;2023-12-28T07:06:35;99158.44;;;15.38
80246;BMP280;69558;39.208;-77.226;2023-12-28T07:09:01;99159.84;;;15.40
80246;BMP280;69558;39.208;-77.226;2023-12-28T07:11:28;99165.88;;;15.41
80246;BMP280;69558;39.208;-77.226;2023-12-28T07:13:54;99160.81;;;15.39
80246;BMP280;69558;39.208;-77.226;2023-12-28T07:16:20;99166.03;;;15.39
80246;BMP280;69558;39.208;-77.226;2023-12-28T07:18:46;99166.50;;;15.43
80246;BMP280;69558;39.208;-77.226;2023-12-28T07:21:11;99173.53;;;15.42
80246;BMP280;69558;39.208;-77.226;2023-12-28T07:23:37;99166.69;;;15.41
80246;BMP280;69558;39.208;-77.226;2023-12-28T07:26:04;99168.50;;;15.41
80246;BMP280;69558;39.208;-77.226;2023-12-28T07:28:30;99176.94;;;15.43
80246;BMP280;69558;39.208;-77.226;2023-12-28T07:30:57;99174.53;;;15.41
80246;BMP280;69558;39.208;-77.226;2023-12-28T07:33:23;99183.97;;;15.42
80246;BMP280;69558;39.208;-77.226;2023-12-28T07:35:49;99186.59;;;15.42
80246;BMP280;69558;39.208;-77.226;2023-12-28T07:38:15;99181.38;;;15.42
80246;BMP280;69558;39.208;-77.226;2023-12-28T07:40:41;99181.38;;;15.42
80246;BMP280;69558;39.208;-77.226;2023-12-28T07:43:07;99178.53;;;15.44
80246;BMP280;69558;39.208;-77.226;2023-12-28T07:45:33;99177.34;;;15.40
80246;BMP280;69558;39.208;-77.226;2023-12-28T07:47:59;99180.75;;;15.40
80246;BMP280;69558;39.208;-77.226;2023-12-28T07:50:25;99173.53;;;15.42
80246;BMP280;69558;39.208;-77.226;2023-12-28T07:52:51;99171.84;;;15.35
80246;BMP280;69558;39.208;-77.226;2023-12-28T07:55:17;99171.91;;;15.41
80246;BMP280;69558;39.208;-77.226;2023-12-28T07:57:43;99176.94;;;15.43
80246;BMP280;69558;39.208;-77.226;2023-12-28T08:00:09;99180.56;;;15.42
80246;BMP280;69558;39.208;-77.226;2023-12-28T08:02:36;99179.56;;;15.43
80246;BMP280;69558;39.208;-77.226;2023-12-28T08:05:02;99185.59;;;15.43
80246;BMP280;69558;39.208;-77.226;2023-12-28T08:07:28;99180.16;;;15.45
80246;BMP280;69558;39.208;-77.226;2023-12-28T08:09:54;99176.94;;;15.43
80246;BMP280;69558;39.208;-77.226;2023-12-28T08:12:20;99174.09;;;15.44
80246;BMP280;69558;39.208;-77.226;2023-12-28T08:14:46;99168.88;;;15.44
80246;BMP280;69558;39.208;-77.226;2023-12-28T08:17:12;99177.75;;;15.43
80246;BMP280;69558;39.208;-77.226;2023-12-28T08:19:38;99167.31;;;15.43
80246;BMP280;69558;39.208;-77.226;2023-12-28T08:22:04;99157.25;;;15.40
80246;BMP280;69558;39.208;-77.226;2023-12-28T08:24:30;99149.78;;;15.37
80246;BMP280;69558;39.208;-77.226;2023-12-28T08:26:58;99166.50;;;15.43
80246;BMP280;69558;39.208;-77.226;2023-12-28T08:29:26;99156.84;;;15.43
80246;BMP280;69558;39.208;-77.226;2023-12-28T08:31:52;99151.63;;;15.43
80246;BMP280;69558;39.208;-77.226;2023-12-28T08:34:18;99149.78;;;15.44
80246;BMP280;69558;39.208;-77.226;2023-12-28T08:36:44;99149.78;;;15.44
80246;BMP280;69558;39.208;-77.226;2023-12-28T08:39:10;99140.38;;;15.43
80246;BMP280;69558;39.208;-77.226;2023-12-28T08:41:36;99147.00;;;15.45
80246;BMP280;69558;39.208;-77.226;2023-12-28T08:44:01;99129.69;;;15.44
80246;BMP280;69558;39.208;-77.226;2023-12-28T08:46:29;99141.78;;;15.45
80246;BMP280;69558;39.208;-77.226;2023-12-28T08:48:55;99135.94;;;15.43
80246;BMP280;69558;39.208;-77.226;2023-12-28T08:51:21;99138.56;;;15.43
80246;BMP280;69558;39.208;-77.226;2023-12-28T08:53:47;99141.19;;;15.43
80246;BMP280;69558;39.208;-77.226;2023-12-28T08:56:17;99148.22;;;15.43
80246;BMP280;69558;39.208;-77.226;2023-12-28T08:58:46;99139.34;;;15.44
80246;BMP280;69558;39.208;-77.226;2023-12-28T09:01:31;99137.38;;;15.46
80246;BMP280;69558;39.208;-77.226;2023-12-28T09:03:58;99139.97;;;15.46
80246;BMP280;69558;39.208;-77.226;2023-12-28T09:06:25;99136.56;;;15.45
80246;BMP280;69558;39.208;-77.226;2023-12-28T09:08:52;99131.34;;;15.45
80246;BMP280;69558;39.208;-77.226;2023-12-28T09:11:18;99121.69;;;15.46
80246;BMP280;69558;39.208;-77.226;2023-12-28T09:13:44;99123.50;;;15.45
80246;BMP280;69558;39.208;-77.226;2023-12-28T09:16:12;99114.00;;;15.44
80246;BMP280;69558;39.208;-77.226;2023-12-28T09:18:39;99111.41;;;15.44
80246;BMP280;69558;39.208;-77.226;2023-12-28T09:21:05;99105.38;;;15.37
80246;BMP280;69558;39.208;-77.226;2023-12-28T09:23:32;99108.41;;;15.41
80246;BMP280;69558;39.208;-77.226;2023-12-28T09:26:00;99114.00;;;15.44
80246;BMP280;69558;39.208;-77.226;2023-12-28T09:28:25;99115.47;;;15.47
80246;BMP280;69558;39.208;-77.226;2023-12-28T09:30:51;99114.66;;;15.46
80246;BMP280;69558;39.208;-77.226;2023-12-28T09:33:17;99117.28;;;15.46
80246;BMP280;69558;39.208;-77.226;2023-12-28T09:35:43;99110.25;;;15.47
80246;BMP280;69558;39.208;-77.226;2023-12-28T09:38:09;99115.47;;;15.47
80246;BMP280;69558;39.208;-77.226;2023-12-28T09:40:35;99115.66;;;15.45
80246;BMP280;69558;39.208;-77.226;2023-12-28T09:43:23;99118.06;;;15.47
80246;BMP280;69558;39.208;-77.226;2023-12-28T09:45:50;99114.00;;;15.44
80246;BMP280;69558;39.208;-77.226;2023-12-28T09:48:18;99115.66;;;15.45
80246;BMP280;69558;39.208;-77.226;2023-12-28T09:50:51;99112.03;;;15.46
80246;BMP280;69558;39.208;-77.226;2023-12-28T09:53:24;99111.25;;;15.46
80246;BMP280;69558;39.208;-77.226;2023-12-28T09:55:50;99112.25;;;15.45
80246;BMP280;69558;39.208;-77.226;2023-12-28T09:58:20;99122.50;;;15.46
80246;BMP280;69558;39.208;-77.226;2023-12-28T10:00:47;99113.84;;;15.46
80246;BMP280;69558;39.208;-77.226;2023-12-28T10:03:14;99107.97;;;15.44
80246;BMP280;69558;39.208;-77.226;2023-12-28T10:05:41;99116.63;;;15.44
80246;BMP280;69558;39.208;-77.226;2023-12-28T10:08:07;99119.25;;;15.44
80246;BMP280;69558;39.208;-77.226;2023-12-28T10:10:34;99121.06;;;15.44
80246;BMP280;69558;39.208;-77.226;2023-12-28T10:13:00;99122.69;;;15.45
80246;BMP280;69558;39.208;-77.226;2023-12-28T10:15:26;99135.94;;;15.43
80246;BMP280;69558;39.208;-77.226;2023-12-28T10:17:52;99139.97;;;15.46
80246;BMP280;69558;39.208;-77.226;2023-12-28T10:20:18;99134.91;;;15.44
80246;BMP280;69558;39.208;-77.226;2023-12-28T10:22:44;99129.69;;;15.44
80246;BMP280;69558;39.208;-77.226;2023-12-28T10:25:11;99130.72;;;15.43
80246;BMP280;69558;39.208;-77.226;2023-12-28T10:27:40;99147.97;;;15.44
80246;BMP280;69558;39.208;-77.226;2023-12-28T10:30:08;99144.41;;;15.45
80246;BMP280;69558;39.208;-77.226;2023-12-28T10:32:36;99147.41;;;15.42
80246;BMP280;69558;39.208;-77.226;2023-12-28T10:35:02;99139.56;;;15.42
80246;BMP280;69558;39.208;-77.226;2023-12-28T10:37:31;99153.03;;;15.46
80246;BMP280;69558;39.208;-77.226;2023-12-28T10:39:59;99149.00;;;15.43
80246;BMP280;69558;39.208;-77.226;2023-12-28T10:42:46;99152.25;;;15.45
80246;BMP280;69558;39.208;-77.226;2023-12-28T10:45:16;99154.25;;;15.43
80246;BMP280;69558;39.208;-77.226;2023-12-28T10:47:43;99157.84;;;15.42
80246;BMP280;69558;39.208;-77.226;2023-12-28T10:50:11;99155.81;;;15.44
80246;BMP280;69558;39.208;-77.226;2023-12-28T10:52:39;99161.03;;;15.44
80246;BMP280;69558;39.208;-77.226;2023-12-28T10:58:14;99167.50;;;15.42
80246;BMP280;69558;39.208;-77.226;2023-12-28T11:00:49;99182.78;;;15.45
80246;BMP280;69558;39.208;-77.226;2023-12-28T11:03:23;99189.78;;;15.44
80246;BMP280;69558;39.208;-77.226;2023-12-28T11:05:51;99193.44;;;15.43
80246;BMP280;69558;39.208;-77.226;2023-12-28T11:08:19;99201.06;;;15.45
80246;BMP280;69558;39.208;-77.226;2023-12-28T11:10:45;99198.84;;;15.42
80246;BMP280;69558;39.208;-77.226;2023-12-28T11:13:13;99214.94;;;15.45
80246;BMP280;69558;39.208;-77.226;2023-12-28T11:15:40;99210.31;;;15.41
80246;BMP280;69558;39.208;-77.226;2023-12-28T11:18:06;99212.25;;;15.39
80246;BMP280;69558;39.208;-77.226;2023-12-28T11:20:33;99217.13;;;15.42
80246;BMP280;69558;39.208;-77.226;2023-12-28T11:23:00;99201.47;;;15.42
80246;BMP280;69558;39.208;-77.226;2023-12-28T11:25:31;99211.72;;;15.43
80246;BMP280;69558;39.208;-77.226;2023-12-28T11:27:57;99208.50;;;15.41
80246;BMP280;69558;39.208;-77.226;2023-12-28T11:30:26;99206.06;;;15.40
80246;BMP280;69558;39.208;-77.226;2023-12-28T11:32:56;99189.31;;;15.34
80246;BMP280;69558;39.208;-77.226;2023-12-28T11:35:34;99197.84;;;15.43
80246;BMP280;69558;39.208;-77.226;2023-12-28T11:38:01;99203.47;;;15.40
80246;BMP280;69558;39.208;-77.226;2023-12-28T11:40:39;99207.50;;;15.42
80246;BMP280;69558;39.208;-77.226;2023-12-28T11:43:05;99205.25;;;15.39
80246;BMP280;69558;39.208;-77.226;2023-12-28T11:45:41;99212.84;;;15.34
80246;BMP280;69558;39.208;-77.226;2023-12-28T11:48:25;99220.31;;;15.37
80246;BMP280;69558;39.208;-77.226;2023-12-28T11:50:59;99223.75;;;15.38
80246;BMP280;69558;39.208;-77.226;2023-12-28T11:53:25;99225.16;;;15.40
80246;BMP280;69558;39.208;-77.226;2023-12-28T11:55:52;99224.16;;;15.41
80246;BMP280;69558;39.208;-77.226;2023-12-28T11:58:18;99218.75;;;15.43
80246;BMP280;69558;39.208;-77.226;2023-12-28T12:00:44;99224.97;;;15.42
80246;BMP280;69558;39.208;-77.226;2023-12-28T12:03:11;99227.41;;;15.43
80246;BMP280;69558;39.208;-77.226;2023-12-28T12:05:37;99237.22;;;15.41
80246;BMP280;69558;39.208;-77.226;2023-12-28T12:08:05;99245.50;;;15.45
80246;BMP280;69558;39.208;-77.226;2023-12-28T12:10:31;99242.03;;;15.44
80246;BMP280;69558;39.208;-77.226;2023-12-28T12:12:58;99227.59;;;15.42
80246;BMP280;69558;39.208;-77.226;2023-12-28T12:15:25;99221.56;;;15.41
80246;BMP280;69558;39.208;-77.226;2023-12-28T12:17:51;99223.16;;;15.42
80246;BMP280;69558;39.208;-77.226;2023-12-28T12:20:16;99218.75;;;15.43
80246;BMP280;69558;39.208;-77.226;2023-12-28T12:22:42;99194.78;;;15.39
80246;BMP280;69558;39.208;-77.226;2023-12-28T12:25:08;99210.09;;;15.42
80246;BMP280;69558;39.208;-77.226;2023-12-28T12:27:36;99212.91;;;15.41
80246;BMP280;69558;39.208;-77.226;2023-12-28T12:30:04;99202.47;;;15.41
80246;BMP280;69558;39.208;-77.226;2023-12-28T12:32:30;99193.81;;;15.40
80246;BMP280;69558;39.208;-77.226;2023-12-28T12:34:57;99198.84;;;15.42
80246;BMP280;69558;39.208;-77.226;2023-12-28T12:37:24;99198.84;;;15.42
80246;BMP280;69558;39.208;-77.226;2023-12-28T12:39:50;99200.66;;;15.41
80246;BMP280;69558;39.208;-77.226;2023-12-28T12:42:16;99208.06;;;15.44
80246;BMP280;69558;39.208;-77.226;2023-12-28T12:44:42;99218.53;;;15.44
80246;BMP280;69558;39.208;-77.226;2023-12-28T12:47:08;99222.94;;;15.44
80246;BMP280;69558;39.208;-77.226;2023-12-28T12:49:34;99221.16;;;15.44
80246;BMP280;69558;39.208;-77.226;2023-12-28T12:52:00;99220.34;;;15.44
80246;BMP280;69558;39.208;-77.226;2023-12-28T12:54:26;99223.59;;;15.46
80246;BMP280;69558;39.208;-77.226;2023-12-28T12:56:52;99224.59;;;15.45
80246;BMP280;69558;39.208;-77.226;2023-12-28T12:59:18;99232.44;;;15.45
80246;BMP280;69558;39.208;-77.226;2023-12-28T13:01:45;99228.00;;;15.45
80246;BMP280;69558;39.208;-77.226;2023-12-28T13:04:14;99224.59;;;15.45
80246;BMP280;69558;39.208;-77.226;2023-12-28T13:06:41;99225.41;;;15.45
80246;BMP280;69558;39.208;-77.226;2023-12-28T13:09:07;99208.06;;;15.38
80246;BMP280;69558;39.208;-77.226;2023-12-28T13:11:34;99213.94;;;15.46
80246;BMP280;69558;39.208;-77.226;2023-12-28T13:14:00;99216.94;;;15.43
80246;BMP280;69558;39.208;-77.226;2023-12-28T13:16:26;99214.13;;;15.45
80246;BMP280;69558;39.208;-77.226;2023-12-28T13:18:52;99211.34;;;15.46
80246;BMP280;69558;39.208;-77.226;2023-12-28T13:21:17;99192.16;;;15.39
80246;BMP280;69558;39.208;-77.226;2023-12-28T13:23:43;99194.03;;;15.45
80246;BMP280;69558;39.208;-77.226;2023-12-28T13:26:09;99183.59;;;15.45
80246;BMP280;69558;39.208;-77.226;2023-12-28T13:28:35;99188.00;;;15.45
80246;BMP280;69558;39.208;-77.226;2023-12-28T13:31:01;99187.81;;;15.46
80246;BMP280;69558;39.208;-77.226;2023-12-28T13:33:27;99179.16;;;15.46
80246;BMP280;69558;39.208;-77.226;2023-12-28T13:35:54;99184.78;;;15.43
80246;BMP280;69558;39.208;-77.226;2023-12-28T13:38:20;99199.09;;;15.47
80246;BMP280;69558;39.208;-77.226;2023-12-28T13:40:47;99195.66;;;15.46
80246;BMP280;69558;39.208;-77.226;2023-12-28T13:43:13;99201.88;;;15.45
80246;BMP280;69558;39.208;-77.226;2023-12-28T13:45:38;99200.69;;;15.48